createdAt,value
2023-05-05T00:01:09.084Z,101401.03
2023-05-05T00:03:35.876Z,101395.03
2023-05-05T00:06:02.882Z,101403.28
2023-05-05T00:08:29.570Z,101396.00
2023-05-05T00:10:57.523Z,101398.22
2023-05-05T00:13:24.460Z,101397.63
2023-05-05T00:15:53.469Z,101404.22
2023-05-05T00:18:21.177Z,101409.78
2023-05-05T00:20:48.403Z,101401.88
2023-05-05T00:23:16.015Z,101406.69
2023-05-05T00:25:43.009Z,101406.88
2023-05-05T00:28:09.691Z,101402.28
2023-05-05T00:30:37.430Z,101405.25
2023-05-05T00:33:04.278Z,101399.59
2023-05-05T00:35:30.844Z,101392.75
2023-05-05T00:37:57.376Z,101398.38
2023-05-05T00:40:25.128Z,101402.00
2023-05-05T00:42:52.177Z,101411.22
2023-05-05T00:45:20.022Z,101405.22
2023-05-05T00:47:49.339Z,101403.34
2023-05-05T00:50:30.553Z,101407.75
2023-05-05T00:53:06.399Z,101407.75
2023-05-05T00:55:34.372Z,101414.47
2023-05-05T00:58:02.697Z,101406.38
2023-05-05T01:00:30.139Z,101408.94
2023-05-05T01:02:57.125Z,101407.97
2023-05-05T01:05:26.957Z,101409.75
2023-05-05T01:07:59.194Z,101408.56
2023-05-05T01:10:36.433Z,101406.09
2023-05-05T01:13:11.778Z,101406.66
2023-05-05T01:15:48.249Z,101410.00
2023-05-05T01:18:35.029Z,101408.94
2023-05-05T01:21:27.479Z,101408.78
2023-05-05T01:24:26.065Z,101404.28
2023-05-05T01:27:34.160Z,101404.28
2023-05-05T01:30:19.600Z,101394.88
2023-05-05T01:32:55.394Z,101393.41
2023-05-05T01:35:53.435Z,101392.59
2023-05-05T01:38:26.186Z,101396.97
2023-05-05T01:41:01.816Z,101392.53
2023-05-05T01:43:31.158Z,101395.34
2023-05-05T01:46:00.574Z,101393.28
2023-05-05T01:48:27.528Z,101398.50
2023-05-05T01:50:54.236Z,101395.28
2023-05-05T01:53:24.050Z,101399.69
2023-05-05T01:55:51.398Z,101397.88
2023-05-05T01:58:18.860Z,101402.03
2023-05-05T02:00:47.045Z,101397.44
2023-05-05T02:03:15.745Z,101398.00
2023-05-05T02:05:43.916Z,101398.97
2023-05-05T02:08:11.614Z,101399.47
2023-05-05T02:10:42.835Z,101405.66
2023-05-05T02:13:12.708Z,101403.44
2023-05-05T02:15:40.507Z,101400.81
2023-05-05T02:18:07.649Z,101405.22
2023-05-05T02:20:37.304Z,101403.16
2023-05-05T02:23:05.782Z,101400.31
2023-05-05T02:25:44.418Z,101404.06
2023-05-05T02:28:20.359Z,101400.88
2023-05-05T02:30:57.619Z,101395.34
2023-05-05T02:33:26.178Z,101401.75
2023-05-05T02:35:56.617Z,101408.75
2023-05-05T02:38:28.825Z,101405.88
2023-05-05T02:40:58.335Z,101400.16
2023-05-05T02:43:26.932Z,101402.13
2023-05-05T02:45:53.499Z,101403.13
2023-05-05T02:48:20.252Z,101403.66
2023-05-05T02:50:46.763Z,101411.00
2023-05-05T02:53:13.726Z,101408.78
2023-05-05T02:55:52.477Z,101406.91
2023-05-05T02:58:29.150Z,101406.25
2023-05-05T03:01:07.321Z,101410.19
2023-05-05T03:04:03.212Z,101404.72
2023-05-05T03:06:33.076Z,101403.47
2023-05-05T03:09:08.754Z,101404.00
2023-05-05T03:11:47.805Z,101411.69
2023-05-05T03:14:18.376Z,101411.03
2023-05-05T03:16:46.404Z,101415.56
2023-05-05T03:19:17.088Z,101416.88
2023-05-05T03:21:44.149Z,101424.06
2023-05-05T03:24:18.032Z,101424.25
2023-05-05T03:26:45.906Z,101424.59
2023-05-05T03:29:13.316Z,101433.84
2023-05-05T03:31:40.098Z,101425.06
2023-05-05T03:34:07.288Z,101430.31
2023-05-05T03:36:35.286Z,101429.81
2023-05-05T03:39:01.860Z,101420.38
2023-05-05T03:41:28.428Z,101420.72
2023-05-05T03:43:55.099Z,101420.72
2023-05-05T03:46:21.710Z,101429.16
2023-05-05T03:48:48.749Z,101429.28
2023-05-05T03:51:15.701Z,101425.06
2023-05-05T03:53:42.280Z,101425.38
2023-05-05T03:56:09.179Z,101425.84
2023-05-05T03:58:35.781Z,101423.44
2023-05-05T04:01:02.309Z,101427.94
2023-05-05T04:03:28.886Z,101425.53
2023-05-05T04:05:55.947Z,101431.88
2023-05-05T04:08:22.502Z,101425.81
2023-05-05T04:10:48.987Z,101428.13
2023-05-05T04:13:15.643Z,101433.28
2023-05-05T04:15:48.058Z,101432.13
2023-05-05T04:18:14.642Z,101428.34
2023-05-05T04:20:41.194Z,101426.19
2023-05-05T04:23:07.709Z,101425.13
2023-05-05T04:25:34.171Z,101424.94
2023-05-05T04:28:00.896Z,101428.91
2023-05-05T04:30:27.476Z,101431.41
2023-05-05T04:32:54.054Z,101430.44
2023-05-05T04:35:20.633Z,101434.38
2023-05-05T04:37:47.176Z,101445.31
2023-05-05T04:40:13.803Z,101437.50
2023-05-05T04:42:40.424Z,101441.19
2023-05-05T04:45:08.474Z,101441.72
2023-05-05T04:47:39.546Z,101447.56
2023-05-05T04:50:07.506Z,101448.31
2023-05-05T04:52:34.310Z,101458.25
2023-05-05T04:55:01.250Z,101451.06
2023-05-05T04:57:27.991Z,101460.47
2023-05-05T04:59:54.481Z,101464.16
2023-05-05T05:02:21.117Z,101460.84
2023-05-05T05:04:47.802Z,101466.75
2023-05-05T05:07:16.836Z,101460.59
2023-05-05T05:09:43.310Z,101453.97
2023-05-05T05:12:09.894Z,101471.31
2023-05-05T05:14:39.972Z,101473.31
2023-05-05T05:17:06.910Z,101471.50
2023-05-05T05:19:33.603Z,101470.13
2023-05-05T05:22:00.170Z,101473.06
2023-05-05T05:24:26.630Z,101474.44
2023-05-05T05:26:53.095Z,101473.34
2023-05-05T05:29:20.382Z,101474.69
2023-05-05T05:31:46.926Z,101474.41
2023-05-05T05:34:13.523Z,101473.38
2023-05-05T05:36:39.976Z,101473.25
2023-05-05T05:39:06.542Z,101480.06
2023-05-05T05:41:33.125Z,101484.88
2023-05-05T05:43:59.631Z,101481.94
2023-05-05T05:46:26.142Z,101488.41
2023-05-05T05:48:52.729Z,101484.75
2023-05-05T05:51:19.279Z,101478.53
2023-05-05T05:53:45.935Z,101502.00
2023-05-05T05:56:12.375Z,101506.31
2023-05-05T05:58:39.059Z,101492.78
2023-05-05T06:01:05.557Z,101500.03
2023-05-05T06:03:32.100Z,101492.22
2023-05-05T06:05:59.237Z,101492.16
2023-05-05T06:08:26.827Z,101487.34
2023-05-05T06:10:53.331Z,101489.94
2023-05-05T06:13:19.829Z,101492.19
2023-05-05T06:15:46.452Z,101502.03
2023-05-05T06:18:13.183Z,101502.03
2023-05-05T06:20:40.009Z,101504.50
2023-05-05T06:23:06.887Z,101507.69
2023-05-05T06:25:33.380Z,101514.19
2023-05-05T06:28:00.183Z,101510.84
2023-05-05T06:30:26.809Z,101512.47
2023-05-05T06:32:54.396Z,101514.94
2023-05-05T06:35:22.084Z,101512.47
2023-05-05T06:37:48.590Z,101502.88
2023-05-05T06:40:15.326Z,101514.38
2023-05-05T06:42:41.868Z,101514.41
2023-05-05T06:45:08.952Z,101514.59
2023-05-05T06:47:36.063Z,101503.13
2023-05-05T06:50:02.602Z,101499.25
2023-05-05T06:52:29.258Z,101510.09
2023-05-05T06:54:55.908Z,101502.53
2023-05-05T06:57:22.486Z,101508.88
2023-05-05T06:59:48.988Z,101513.31
2023-05-05T07:02:15.490Z,101510.34
2023-05-05T07:04:43.581Z,101507.25
2023-05-05T07:07:10.029Z,101495.22
2023-05-05T07:09:36.576Z,101504.03
2023-05-05T07:12:03.660Z,101500.28
2023-05-05T07:14:30.684Z,101505.75
2023-05-05T07:16:57.282Z,101505.84
2023-05-05T07:19:23.839Z,101513.09
2023-05-05T07:21:50.446Z,101506.06
2023-05-05T07:24:17.002Z,101502.72
2023-05-05T07:26:43.594Z,101495.59
2023-05-05T07:29:10.100Z,101499.91
2023-05-05T07:31:36.626Z,101499.78
2023-05-05T07:34:03.174Z,101498.97
2023-05-05T07:36:30.302Z,101500.16
2023-05-05T07:38:56.795Z,101497.25
2023-05-05T07:41:23.350Z,101489.41
2023-05-05T07:43:49.828Z,101494.75
2023-05-05T07:46:16.450Z,101508.56
2023-05-05T07:48:43.086Z,101500.84
2023-05-05T07:51:09.774Z,101499.34
2023-05-05T07:53:36.961Z,101505.19
2023-05-05T07:56:03.763Z,101503.59
2023-05-05T07:58:30.339Z,101510.16
2023-05-05T08:00:56.820Z,101511.03
2023-05-05T08:03:24.895Z,101516.19
2023-05-05T08:05:56.431Z,101517.38
2023-05-05T08:08:24.941Z,101523.91
2023-05-05T08:10:52.991Z,101519.56
2023-05-05T08:13:19.749Z,101506.63
2023-05-05T08:15:46.442Z,101512.63
2023-05-05T08:18:14.348Z,101521.06
2023-05-05T08:20:41.040Z,101523.41
2023-05-05T08:23:07.569Z,101523.06
2023-05-05T08:25:34.183Z,101532.56
2023-05-05T08:28:00.897Z,101522.50
2023-05-05T08:30:27.696Z,101531.94
2023-05-05T08:32:54.239Z,101521.28
2023-05-05T08:35:20.997Z,101517.34
2023-05-05T08:37:47.489Z,101526.28
2023-05-05T08:40:14.698Z,101524.09
2023-05-05T08:42:42.098Z,101517.66
2023-05-05T08:45:10.173Z,101520.06
2023-05-05T08:47:38.788Z,101519.44
2023-05-05T08:50:06.167Z,101517.78
2023-05-05T08:52:39.737Z,101515.22
2023-05-05T08:55:14.472Z,101519.97
2023-05-05T08:57:57.913Z,101519.84
2023-05-05T09:00:27.235Z,101524.81
2023-05-05T09:02:56.900Z,101521.28
2023-05-05T09:05:23.910Z,101522.59
2023-05-05T09:07:50.683Z,101529.66
2023-05-05T09:10:17.856Z,101530.25
2023-05-05T09:12:44.736Z,101532.34
2023-05-05T09:15:13.112Z,101525.19
2023-05-05T09:17:40.558Z,101528.06
2023-05-05T09:20:08.960Z,101525.06
2023-05-05T09:22:43.676Z,101530.97
2023-05-05T09:25:12.192Z,101527.53
2023-05-05T09:27:41.406Z,101523.75
2023-05-05T09:30:10.134Z,101525.59
2023-05-05T09:32:50.258Z,101521.78
2023-05-05T09:35:18.358Z,101519.41
2023-05-05T09:37:45.206Z,101524.38
2023-05-05T09:40:14.890Z,101515.75
2023-05-05T09:42:41.853Z,101520.22
2023-05-05T09:45:17.347Z,101519.78
2023-05-05T09:47:47.756Z,101518.91
2023-05-05T09:50:18.558Z,101531.53
2023-05-05T09:52:56.150Z,101524.59
2023-05-05T09:55:24.060Z,101523.94
2023-05-05T09:57:50.594Z,101527.25
2023-05-05T10:00:17.681Z,101520.38
2023-05-05T10:02:44.292Z,101523.50
2023-05-05T10:05:13.047Z,101532.34
2023-05-05T10:07:42.991Z,101526.69
2023-05-05T10:10:12.339Z,101527.34
2023-05-05T10:12:39.917Z,101517.03
2023-05-05T10:15:09.511Z,101523.34
2023-05-05T10:17:38.668Z,101520.63
2023-05-05T10:20:10.053Z,101527.16
2023-05-05T10:22:38.811Z,101523.50
2023-05-05T10:25:15.964Z,101519.00
2023-05-05T10:27:45.962Z,101518.34
2023-05-05T10:30:30.421Z,101510.78
2023-05-05T10:33:31.063Z,101515.13
2023-05-05T10:36:01.944Z,101507.91
2023-05-05T10:38:30.992Z,101503.19
2023-05-05T10:40:59.616Z,101493.66
2023-05-05T10:43:27.734Z,101501.81
2023-05-05T10:45:55.633Z,101504.06
2023-05-05T10:48:48.469Z,101497.66
2023-05-05T10:51:31.040Z,101493.19
2023-05-05T10:54:26.483Z,101497.31
2023-05-05T10:56:53.362Z,101489.03
2023-05-05T10:59:38.378Z,101480.19
2023-05-05T11:02:21.664Z,101481.81
2023-05-05T11:05:06.970Z,101484.69
2023-05-05T11:07:34.558Z,101484.59
2023-05-05T11:10:03.572Z,101470.81
2023-05-05T11:12:32.178Z,101467.97
2023-05-05T11:15:37.999Z,101463.13
2023-05-05T11:18:07.980Z,101456.69
2023-05-05T11:20:39.505Z,101459.78
2023-05-05T11:23:06.306Z,101446.28
2023-05-05T11:25:36.458Z,101448.41
2023-05-05T11:28:19.635Z,101446.75
2023-05-05T11:30:55.328Z,101442.63
2023-05-05T11:33:29.191Z,101461.50
2023-05-05T11:35:59.675Z,101445.22
2023-05-05T11:38:44.309Z,101447.53
2023-05-05T11:41:14.258Z,101449.97
2023-05-05T11:43:41.778Z,101442.25
2023-05-05T11:46:14.302Z,101440.38
2023-05-05T11:48:52.819Z,101448.78
2023-05-05T11:51:19.538Z,101453.72
2023-05-05T11:53:47.786Z,101439.31
2023-05-05T11:56:19.212Z,101438.50
2023-05-05T11:58:46.799Z,101441.28
2023-05-05T12:01:13.608Z,101444.50
2023-05-05T12:03:40.727Z,101445.47
2023-05-05T12:06:08.237Z,101450.75
2023-05-05T12:08:39.382Z,101446.03
2023-05-05T12:11:09.324Z,101444.22
2023-05-05T12:13:35.870Z,101444.88
2023-05-05T12:16:13.178Z,101443.69
2023-05-05T12:18:40.894Z,101443.56
2023-05-05T12:21:20.852Z,101435.69
2023-05-05T12:23:47.545Z,101448.72
2023-05-05T12:26:30.075Z,101433.28
2023-05-05T12:29:00.383Z,101437.50
2023-05-05T12:31:41.518Z,101430.84
2023-05-05T12:34:11.980Z,101441.56
2023-05-05T12:36:39.834Z,101432.38
2023-05-05T12:39:06.411Z,101446.41
2023-05-05T12:41:34.260Z,101438.84
2023-05-05T12:44:03.123Z,101433.56
2023-05-05T12:46:31.069Z,101449.56
2023-05-05T12:49:04.890Z,101422.34
2023-05-05T12:51:32.898Z,101428.84
2023-05-05T12:54:10.322Z,101431.66
2023-05-05T12:56:36.866Z,101421.53
2023-05-05T12:59:11.042Z,101432.44
2023-05-05T13:01:49.041Z,101430.19
2023-05-05T13:04:16.031Z,101422.41
2023-05-05T13:06:47.932Z,101417.63
2023-05-05T13:09:35.628Z,101413.47
2023-05-05T13:12:05.608Z,101412.81
2023-05-05T13:17:07.512Z,101415.78
2023-05-05T13:19:35.744Z,101415.75
2023-05-05T13:22:02.329Z,101408.19
2023-05-05T13:24:42.330Z,101408.56
2023-05-05T13:27:13.850Z,101402.81
2023-05-05T13:29:41.697Z,101402.50
2023-05-05T13:32:08.284Z,101398.88
2023-05-05T13:34:34.912Z,101399.13
2023-05-05T13:37:01.373Z,101398.47
2023-05-05T13:39:27.923Z,101399.13
2023-05-05T13:41:54.421Z,101393.31
2023-05-05T13:44:21.026Z,101392.41
2023-05-05T13:46:47.935Z,101393.31
2023-05-05T13:49:14.631Z,101386.16
2023-05-05T13:51:41.184Z,101383.66
2023-05-05T13:54:07.784Z,101373.63
2023-05-05T13:56:34.755Z,101377.31
2023-05-05T13:59:02.389Z,101357.41
2023-05-05T14:01:29.688Z,101362.38
2023-05-05T14:03:57.573Z,101365.09
2023-05-05T14:06:24.479Z,101359.63
2023-05-05T14:08:51.701Z,101364.44
2023-05-05T14:11:18.302Z,101363.47
2023-05-05T14:13:46.489Z,101361.28
2023-05-05T14:16:13.653Z,101359.78
2023-05-05T14:18:40.384Z,101369.97
2023-05-05T14:21:07.025Z,101370.06
2023-05-05T14:23:33.592Z,101382.94
2023-05-05T14:26:00.510Z,101373.31
2023-05-05T14:28:27.050Z,101363.94
2023-05-05T14:30:53.742Z,101367.47
2023-05-05T14:33:20.309Z,101354.19
2023-05-05T14:35:46.922Z,101362.28
2023-05-05T14:38:13.421Z,101358.63
2023-05-05T14:40:39.926Z,101352.28
2023-05-05T14:43:06.631Z,101370.22
2023-05-05T14:45:33.631Z,101357.53
2023-05-05T14:48:00.256Z,101362.91
2023-05-05T14:50:26.827Z,101361.16
2023-05-05T14:52:53.344Z,101358.72
2023-05-05T14:55:19.905Z,101363.66
2023-05-05T14:57:46.410Z,101359.78
2023-05-05T15:00:13.454Z,101357.81
2023-05-05T15:02:40.161Z,101362.88
2023-05-05T15:05:07.758Z,101360.75
2023-05-05T15:07:34.522Z,101362.47
2023-05-05T15:10:01.547Z,101361.25
2023-05-05T15:12:28.066Z,101362.06
2023-05-05T15:14:55.443Z,101356.28
2023-05-05T15:17:22.147Z,101355.28
2023-05-05T15:19:48.824Z,101359.53
2023-05-05T15:22:15.620Z,101354.75
2023-05-05T15:24:42.198Z,101350.81
2023-05-05T15:27:08.866Z,101345.88
2023-05-05T15:29:35.372Z,101349.09
2023-05-05T15:32:01.934Z,101351.06
2023-05-05T15:34:28.509Z,101356.91
2023-05-05T15:36:55.093Z,101351.75
2023-05-05T15:39:21.692Z,101363.69
2023-05-05T15:41:48.338Z,101360.50
2023-05-05T15:44:15.047Z,101367.50
2023-05-05T15:46:41.645Z,101362.09
2023-05-05T15:49:08.303Z,101359.38
2023-05-05T15:51:35.411Z,101363.84
2023-05-05T15:54:02.013Z,101359.47
2023-05-05T15:56:29.277Z,101363.22
2023-05-05T15:58:56.741Z,101362.88
2023-05-05T16:01:23.434Z,101360.00
2023-05-05T16:03:50.182Z,101359.78
2023-05-05T16:06:16.760Z,101356.44
2023-05-05T16:08:43.418Z,101366.31
2023-05-05T16:11:11.528Z,101355.31
2023-05-05T16:13:39.134Z,101357.53
2023-05-05T16:16:06.821Z,101357.72
2023-05-05T16:18:33.562Z,101352.91
2023-05-05T16:21:00.188Z,101355.06
2023-05-05T16:23:26.990Z,101352.91
2023-05-05T16:25:53.574Z,101349.34
2023-05-05T16:28:20.134Z,101337.22
2023-05-05T16:30:46.694Z,101348.75
2023-05-05T16:33:13.214Z,101342.97
2023-05-05T16:35:39.777Z,101344.00
2023-05-05T16:38:06.364Z,101342.47
2023-05-05T16:40:32.983Z,101333.06
2023-05-05T16:42:59.470Z,101337.66
2023-05-05T16:45:25.987Z,101344.69
2023-05-05T16:47:52.540Z,101350.03
2023-05-05T16:50:19.237Z,101341.75
2023-05-05T16:52:46.009Z,101346.75
2023-05-05T16:55:12.652Z,101354.59
2023-05-05T16:57:39.173Z,101352.19
2023-05-05T17:00:07.311Z,101346.28
2023-05-05T17:02:35.302Z,101344.38
2023-05-05T17:05:02.588Z,101347.03
2023-05-05T17:07:29.265Z,101341.78
2023-05-05T17:09:55.769Z,101345.72
2023-05-05T17:12:22.354Z,101350.03
2023-05-05T17:14:49.190Z,101346.06
2023-05-05T17:17:15.672Z,101350.97
2023-05-05T17:19:42.756Z,101343.34
2023-05-05T17:22:09.456Z,101351.19
2023-05-05T17:24:36.453Z,101356.22
2023-05-05T17:27:03.301Z,101353.59
2023-05-05T17:29:29.893Z,101352.06
2023-05-05T17:31:56.809Z,101363.41
2023-05-05T17:34:23.334Z,101360.19
2023-05-05T17:36:49.870Z,101362.84
2023-05-05T17:39:16.933Z,101370.63
2023-05-05T17:41:43.500Z,101364.19
2023-05-05T17:44:10.098Z,101370.91
2023-05-05T17:46:37.435Z,101366.13
2023-05-05T17:49:04.016Z,101366.38
2023-05-05T17:51:31.446Z,101377.88
2023-05-05T17:53:58.393Z,101370.31
2023-05-05T17:56:24.972Z,101379.63
2023-05-05T17:58:51.970Z,101376.44
2023-05-05T18:01:26.720Z,101377.84
2023-05-05T18:03:53.711Z,101374.84
2023-05-05T18:06:20.570Z,101374.09
2023-05-05T18:08:48.081Z,101382.97
2023-05-05T18:11:15.399Z,101377.34
2023-05-05T18:13:43.057Z,101386.03
2023-05-05T18:16:09.606Z,101368.09
2023-05-05T18:18:36.523Z,101382.03
2023-05-05T18:21:03.146Z,101369.13
2023-05-05T18:23:29.727Z,101376.34
2023-05-05T18:25:56.451Z,101383.63
2023-05-05T18:28:23.482Z,101385.47
2023-05-05T18:30:50.073Z,101392.28
2023-05-05T18:33:16.748Z,101388.41
2023-05-05T18:35:43.389Z,101393.44
2023-05-05T18:38:10.078Z,101401.88
2023-05-05T18:40:36.702Z,101400.88
2023-05-05T18:43:03.340Z,101399.88
2023-05-05T18:45:30.204Z,101399.84
2023-05-05T18:47:56.806Z,101399.84
2023-05-05T18:50:23.384Z,101405.25
2023-05-05T18:52:49.949Z,101410.25
2023-05-05T18:55:16.845Z,101404.81
2023-05-05T18:57:43.435Z,101400.19
2023-05-05T19:00:10.839Z,101402.38
2023-05-05T19:02:37.671Z,101407.19
2023-05-05T19:05:04.768Z,101405.38
2023-05-05T19:07:35.054Z,101405.56
2023-05-05T19:10:04.568Z,101397.28
2023-05-05T19:12:31.592Z,101398.50
2023-05-05T19:15:01.459Z,101393.28
2023-05-05T19:17:28.001Z,101394.47
2023-05-05T19:19:54.845Z,101389.81
2023-05-05T19:22:23.081Z,101391.41
2023-05-05T19:24:49.703Z,101391.41
2023-05-05T19:27:17.118Z,101388.03
2023-05-05T19:29:44.583Z,101389.81
2023-05-05T19:32:11.169Z,101391.19
2023-05-05T19:34:37.843Z,101391.19
2023-05-05T19:37:04.691Z,101379.91
2023-05-05T19:39:31.302Z,101383.53
2023-05-05T19:41:57.917Z,101379.53
2023-05-05T19:44:24.692Z,101383.31
2023-05-05T19:46:53.079Z,101386.97
2023-05-05T19:49:19.799Z,101388.94
2023-05-05T19:51:49.802Z,101393.94
2023-05-05T19:54:16.806Z,101396.91
2023-05-05T19:56:43.478Z,101387.44
2023-05-05T19:59:10.813Z,101387.03
2023-05-05T20:01:39.266Z,101383.19
2023-05-05T20:04:06.061Z,101384.22
2023-05-05T20:06:36.644Z,101383.78
2023-05-05T20:09:04.677Z,101391.00
2023-05-05T20:11:31.694Z,101384.56
2023-05-05T20:13:58.702Z,101380.13
2023-05-05T20:16:28.003Z,101383.56
2023-05-05T20:18:54.997Z,101384.16
2023-05-05T20:21:21.640Z,101383.72
2023-05-05T20:23:48.543Z,101393.94
2023-05-05T20:26:15.337Z,101387.06
2023-05-05T20:28:45.134Z,101385.66
2023-05-05T20:31:14.210Z,101390.47
2023-05-05T20:33:41.005Z,101382.41
2023-05-05T20:36:07.805Z,101384.75
2023-05-05T20:38:37.238Z,101380.88
2023-05-05T20:41:03.814Z,101378.28
2023-05-05T20:43:30.335Z,101374.41
2023-05-05T20:45:57.055Z,101380.66
2023-05-05T20:48:23.607Z,101378.59
2023-05-05T20:50:51.243Z,101380.03
2023-05-05T20:53:19.166Z,101375.38
2023-05-05T20:55:45.972Z,101373.31
2023-05-05T20:58:12.780Z,101372.09
2023-05-05T21:00:39.604Z,101375.88
2023-05-05T21:03:08.858Z,101378.44
2023-05-05T21:05:36.170Z,101384.66
2023-05-05T21:08:02.910Z,101379.44
2023-05-05T21:10:29.549Z,101386.03
2023-05-05T21:12:56.200Z,101379.13
2023-05-05T21:15:23.137Z,101381.53
2023-05-05T21:17:50.007Z,101378.50
2023-05-05T21:20:18.604Z,101377.09
2023-05-05T21:22:45.793Z,101366.84
2023-05-05T21:25:19.325Z,101360.56
2023-05-05T21:27:47.775Z,101361.56
2023-05-05T21:30:15.774Z,101350.50
2023-05-05T21:32:42.956Z,101358.34
2023-05-05T21:35:10.214Z,101354.47
2023-05-05T21:37:38.078Z,101349.25
2023-05-05T21:40:06.300Z,101335.59
2023-05-05T21:42:32.899Z,101345.25
2023-05-05T21:44:59.496Z,101346.41
2023-05-05T21:47:27.003Z,101344.38
2023-05-05T21:49:53.471Z,101346.16
2023-05-05T21:52:20.152Z,101338.34
2023-05-05T21:54:46.743Z,101333.94
2023-05-05T21:57:13.208Z,101336.34
2023-05-05T21:59:39.871Z,101333.94
2023-05-05T22:02:06.386Z,101331.56
2023-05-05T22:04:32.913Z,101328.78
2023-05-05T22:06:59.495Z,101328.78
2023-05-05T22:09:25.981Z,101338.84
2023-05-05T22:11:52.569Z,101339.66
2023-05-05T22:14:19.090Z,101342.44
2023-05-05T22:16:45.742Z,101332.44
2023-05-05T22:19:12.375Z,101329.41
2023-05-05T22:21:38.809Z,101329.59
2023-05-05T22:24:07.232Z,101339.41
2023-05-05T22:26:33.788Z,101329.59
2023-05-05T22:29:00.737Z,101315.75
2023-05-05T22:31:27.378Z,101322.75
2023-05-05T22:33:53.856Z,101315.69
2023-05-05T22:36:20.445Z,101314.06
2023-05-05T22:38:46.947Z,101322.25
2023-05-05T22:41:13.627Z,101318.47
2023-05-05T22:43:40.110Z,101320.28
2023-05-05T22:46:06.705Z,101325.69
2023-05-05T22:48:33.212Z,101325.50
2023-05-05T22:50:59.964Z,101325.88
2023-05-05T22:53:26.584Z,101316.59
2023-05-05T22:55:53.151Z,101322.63
2023-05-05T22:58:20.067Z,101310.75
2023-05-05T23:00:46.725Z,101308.78
2023-05-05T23:03:13.397Z,101317.97
2023-05-05T23:05:39.864Z,101315.72
2023-05-05T23:08:06.623Z,101316.94
2023-05-05T23:10:33.134Z,101309.44
2023-05-05T23:12:59.662Z,101323.94
2023-05-05T23:15:26.157Z,101309.09
2023-05-05T23:17:52.757Z,101318.53
2023-05-05T23:20:19.526Z,101309.69
2023-05-05T23:22:45.996Z,101298.53
2023-05-05T23:25:12.856Z,101301.16
2023-05-05T23:27:42.663Z,101298.16
2023-05-05T23:30:09.709Z,101295.56
2023-05-05T23:32:36.329Z,101287.34
2023-05-05T23:35:02.931Z,101291.97
2023-05-05T23:37:29.537Z,101287.34
2023-05-05T23:39:56.761Z,101281.34
2023-05-05T23:42:24.068Z,101286.19
2023-05-05T23:44:50.562Z,101277.34
2023-05-05T23:47:17.160Z,101277.00
2023-05-05T23:49:43.643Z,101276.00
2023-05-05T23:52:10.905Z,101275.16
2023-05-05T23:54:37.346Z,101268.53
2023-05-05T23:57:03.937Z,101266.91
2023-05-05T23:59:30.624Z,101264.31
